Time;durP1;ratioP1;P1;durP2;ratioP2;P2;SDS_P1;SDS_P2;PMS_P1;PMS_P2;Temp;Humidity;BMP_temperature;BMP_pressure;BME280_temperature;BME280_humidity;BME280_pressure;Samples;Min_cycle;Max_cycle;Signal;HPM_P1;HPM_P2
2023/06/18 00:02:03;;;;;;;1.67;1.47;;;14.30;60.60;;;;;;5027751;28;20181;-70
2023/06/18 00:04:30;;;;;;;2.30;1.70;;;14.30;59.80;;;;;;5028989;28;20180;-70
2023/06/18 00:06:58;;;;;;;3.83;2.00;;;14.40;59.20;;;;;;5026918;28;20647;-72
2023/06/18 00:09:25;;;;;;;2.57;1.80;;;14.50;59.10;;;;;;5035456;28;20269;-69
2023/06/18 00:11:53;;;;;;;3.03;1.93;;;14.60;58.80;;;;;;5028157;28;20232;-72
2023/06/18 00:14:21;;;;;;;5.23;1.97;;;14.70;58.40;;;;;;5032263;28;20184;-70
2023/06/18 00:16:53;;;;;;;4.23;1.80;;;14.80;57.80;;;;;;5031920;28;20192;-71
2023/06/18 00:19:21;;;;;;;2.77;1.77;;;15.00;57.10;;;;;;5030580;28;20227;-68
2023/06/18 00:21:48;;;;;;;2.80;1.40;;;15.00;57.30;;;;;;5036856;28;20212;-71
2023/06/18 00:24:15;;;;;;;2.80;1.40;;;15.10;56.40;;;;;;5028740;28;20185;-70
2023/06/18 00:26:43;;;;;;;1.93;1.23;;;15.10;55.90;;;;;;5030126;28;20184;-68
2023/06/18 00:29:10;;;;;;;5.10;1.57;;;15.10;55.70;;;;;;5035761;28;20181;-67
2023/06/18 00:31:38;;;;;;;2.33;1.50;;;15.30;55.90;;;;;;5037964;28;20686;-66
2023/06/18 00:34:06;;;;;;;3.47;1.50;;;15.40;55.00;;;;;;5031132;28;20176;-68
2023/06/18 00:36:38;;;;;;;1.80;1.30;;;15.50;54.40;;;;;;5033974;28;20179;-71
2023/06/18 00:39:06;;;;;;;3.37;1.43;;;15.70;54.20;;;;;;5031324;28;20220;-68
2023/06/18 00:41:34;;;;;;;2.90;1.50;;;15.70;54.10;;;;;;5034157;28;20516;-70
2023/06/18 00:44:02;;;;;;;4.03;1.53;;;15.90;53.80;;;;;;5035523;28;20195;-68
2023/06/18 00:46:35;;;;;;;2.80;1.60;;;15.90;53.00;;;;;;5031070;28;20181;-66
2023/06/18 00:49:02;;;;;;;1.67;1.30;;;16.00;53.00;;;;;;5030128;28;20540;-67
2023/06/18 00:51:31;;;;;;;3.00;1.37;;;16.10;52.80;;;;;;5031229;28;20212;-66
2023/06/18 00:53:58;;;;;;;1.90;1.17;;;16.20;51.00;;;;;;5027865;28;20191;-67
2023/06/18 00:56:29;;;;;;;1.67;1.37;;;16.30;50.10;;;;;;5036619;28;20267;-67
2023/06/18 00:58:57;;;;;;;4.27;1.20;;;16.50;50.50;;;;;;5030690;28;20209;-67
2023/06/18 01:01:25;;;;;;;2.13;1.30;;;16.70;50.00;;;;;;5041450;28;20190;-67
2023/06/18 01:03:53;;;;;;;5.27;1.37;;;16.90;49.20;;;;;;5036784;28;20217;-68
2023/06/18 01:06:21;;;;;;;3.23;1.17;;;16.90;48.60;;;;;;5042402;28;20189;-67
2023/06/18 01:08:54;;;;;;;1.37;1.27;;;17.00;47.80;;;;;;5033799;28;20188;-68
2023/06/18 01:11:21;;;;;;;2.20;1.30;;;17.10;48.20;;;;;;5033027;28;20236;-69
2023/06/18 01:13:52;;;;;;;2.80;1.40;;;17.20;47.40;;;;;;5041559;28;20238;-66
2023/06/18 01:16:22;;;;;;;2.07;1.17;;;17.30;47.80;;;;;;5034001;28;20210;-67
2023/06/18 01:18:51;;;;;;;1.37;1.27;;;17.40;47.90;;;;;;5036518;28;20196;-68
2023/06/18 01:21:24;;;;;;;2.30;1.47;;;17.60;47.30;;;;;;5037463;28;20189;-68
2023/06/18 01:23:57;;;;;;;1.93;1.10;;;17.70;46.60;;;;;;5037058;28;20250;-70
2023/06/18 01:26:26;;;;;;;4.30;1.17;;;17.70;46.80;;;;;;5038614;28;20179;-67
2023/06/18 01:28:58;;;;;;;1.83;0.80;;;17.70;45.30;;;;;;5045168;28;20559;-66
2023/06/18 01:31:26;;;;;;;3.20;1.10;;;17.80;44.40;;;;;;5034671;28;20211;-65
2023/06/18 01:33:53;;;;;;;2.00;1.00;;;18.00;44.60;;;;;;5036798;28;20589;-66
2023/06/18 01:37:06;;;;;;;3.50;1.07;;;18.30;43.20;;;;;;5033796;28;20196;-68
2023/06/18 01:39:42;;;;;;;1.77;1.00;;;18.30;42.40;;;;;;5031681;28;20642;-68
2023/06/18 01:42:16;;;;;;;0.93;0.87;;;18.30;42.00;;;;;;5027119;28;20184;-68
2023/06/18 01:44:52;;;;;;;2.73;1.10;;;18.40;41.40;;;;;;5034233;28;20219;-67
2023/06/18 01:47:21;;;;;;;2.07;0.90;;;18.40;41.70;;;;;;5035258;28;20653;-68
2023/06/18 01:49:50;;;;;;;1.13;0.80;;;18.40;41.30;;;;;;5036722;28;20181;-68
2023/06/18 01:52:18;;;;;;;1.83;0.93;;;18.40;40.40;;;;;;5031074;28;20220;-68
2023/06/18 01:54:48;;;;;;;3.67;0.93;;;18.40;41.40;;;;;;5032609;28;20184;-66
2023/06/18 01:57:16;;;;;;;2.90;0.80;;;18.70;41.20;;;;;;5033352;28;20181;-70
2023/06/18 01:59:47;;;;;;;0.87;0.80;;;18.70;40.10;;;;;;5031491;28;20659;-67
2023/06/18 02:02:15;;;;;;;4.40;0.83;;;18.80;40.30;;;;;;5033199;28;20532;-67
2023/06/18 02:04:43;;;;;;;1.97;1.07;;;18.90;39.70;;;;;;5032366;28;20184;-67
2023/06/18 02:07:12;;;;;;;4.03;1.30;;;18.90;39.70;;;;;;5035034;28;20193;-65
2023/06/18 02:09:40;;;;;;;2.57;1.07;;;19.10;39.30;;;;;;5033602;28;20177;-66
2023/06/18 02:12:08;;;;;;;6.83;1.10;;;19.10;38.90;;;;;;5038266;28;20226;-67
2023/06/18 02:14:35;;;;;;;1.30;0.83;;;19.30;39.00;;;;;;5036607;28;20212;-67
2023/06/18 02:17:02;;;;;;;1.53;0.90;;;19.20;39.10;;;;;;5034365;28;20185;-68
2023/06/18 02:19:30;;;;;;;1.90;1.00;;;19.30;39.70;;;;;;5029289;28;20196;-70
2023/06/18 02:21:57;;;;;;;1.30;1.00;;;19.20;40.00;;;;;;5034220;28;20181;-64
2023/06/18 02:24:25;;;;;;;2.00;1.10;;;19.30;39.40;;;;;;5036517;28;20186;-70
2023/06/18 02:26:52;;;;;;;1.27;0.90;;;19.50;39.60;;;;;;5033007;28;20196;-68
2023/06/18 02:29:20;;;;;;;3.13;1.00;;;19.70;38.80;;;;;;5033771;28;20199;-71
2023/06/18 02:31:47;;;;;;;3.00;0.90;;;19.50;39.40;;;;;;5032737;28;20603;-69
2023/06/18 02:34:15;;;;;;;1.73;1.00;;;19.30;37.90;;;;;;5035936;28;20585;-65
2023/06/18 02:36:42;;;;;;;3.60;1.20;;;19.20;38.70;;;;;;5032556;28;20195;-68
2023/06/18 02:39:09;;;;;;;3.90;1.00;;;19.30;39.60;;;;;;5032914;28;20634;-65
2023/06/18 02:41:37;;;;;;;2.23;1.30;;;19.30;39.30;;;;;;5032616;28;20184;-70
2023/06/18 02:44:04;;;;;;;1.70;0.93;;;19.30;39.10;;;;;;5033519;28;20180;-68
2023/06/18 02:46:32;;;;;;;3.40;1.37;;;19.30;39.20;;;;;;5035904;28;20202;-69
2023/06/18 02:48:59;;;;;;;2.63;1.13;;;19.10;39.30;;;;;;5035027;28;20189;-69
2023/06/18 02:51:26;;;;;;;2.07;1.10;;;19.30;40.00;;;;;;5033039;28;20212;-70
2023/06/18 02:53:54;;;;;;;1.33;1.03;;;19.40;38.10;;;;;;5036669;28;20188;-67
2023/06/18 02:56:21;;;;;;;1.83;1.07;;;19.30;39.10;;;;;;5032933;28;20185;-68
2023/06/18 02:58:55;;;;;;;1.37;1.10;;;19.50;38.60;;;;;;5031962;28;20271;-71
2023/06/18 03:01:24;;;;;;;1.60;1.10;;;19.40;38.40;;;;;;5036091;28;20242;-71
2023/06/18 03:03:55;;;;;;;1.90;1.40;;;19.30;38.30;;;;;;5027518;28;20189;-69
2023/06/18 03:06:23;;;;;;;3.30;1.00;;;19.10;38.50;;;;;;5035913;28;20587;-67
2023/06/18 03:08:51;;;;;;;1.33;1.00;;;19.30;39.20;;;;;;5033786;28;20207;-69
2023/06/18 03:11:19;;;;;;;1.73;1.07;;;19.30;38.70;;;;;;5030329;28;20298;-68
2023/06/18 03:13:47;;;;;;;1.73;1.10;;;19.30;38.40;;;;;;5028611;28;20192;-67
2023/06/18 03:16:14;;;;;;;2.40;1.00;;;19.60;38.60;;;;;;5030144;28;20191;-69
2023/06/18 03:18:41;;;;;;;1.83;1.20;;;19.60;38.00;;;;;;5031111;28;20230;-70
2023/06/18 03:21:08;;;;;;;2.80;1.00;;;19.70;37.70;;;;;;5030706;28;20199;-67
2023/06/18 03:23:36;;;;;;;3.13;0.93;;;19.80;37.40;;;;;;5037119;28;20197;-65
2023/06/18 03:26:03;;;;;;;4.37;1.10;;;19.80;37.10;;;;;;5034048;28;21533;-68
2023/06/18 03:28:31;;;;;;;1.70;1.13;;;20.10;37.40;;;;;;5046007;28;20192;-67
2023/06/18 03:30:58;;;;;;;1.20;1.00;;;20.20;36.60;;;;;;5028313;28;20207;-66
2023/06/18 03:33:29;;;;;;;2.73;1.00;;;20.30;35.50;;;;;;5034161;28;20196;-66
2023/06/18 03:35:59;;;;;;;1.70;1.17;;;20.20;35.60;;;;;;5031455;28;20191;-68
2023/06/18 03:38:28;;;;;;;3.80;1.10;;;20.40;33.60;;;;;;5031610;28;20323;-68
2023/06/18 03:40:55;;;;;;;1.97;0.60;;;20.20;32.70;;;;;;5026506;28;20196;-70
2023/06/18 03:43:23;;;;;;;2.10;1.10;;;19.80;32.30;;;;;;5038174;28;20279;-67
2023/06/18 03:45:50;;;;;;;5.33;0.70;;;19.50;32.60;;;;;;5032285;28;20192;-68
2023/06/18 03:48:18;;;;;;;3.83;0.73;;;19.30;33.70;;;;;;5032823;28;20338;-65
2023/06/18 03:50:45;;;;;;;3.20;0.60;;;19.20;33.50;;;;;;5028017;28;20187;-69
2023/06/18 03:53:13;;;;;;;1.23;0.83;;;19.20;34.00;;;;;;5030812;28;20177;-68
2023/06/18 03:55:41;;;;;;;3.67;0.80;;;19.10;34.30;;;;;;5026790;28;20185;-70
2023/06/18 03:58:10;;;;;;;3.43;0.70;;;18.90;34.20;;;;;;5037193;28;20191;-70
2023/06/18 04:00:38;;;;;;;1.70;0.80;;;18.80;34.50;;;;;;5029787;28;20537;-66
2023/06/18 04:03:05;;;;;;;0.90;0.67;;;19.00;33.80;;;;;;5034827;28;20185;-63
2023/06/18 04:05:32;;;;;;;3.10;0.87;;;19.70;33.30;;;;;;5033697;28;20302;-67
2023/06/18 04:08:00;;;;;;;1.50;0.80;;;20.00;32.90;;;;;;5034468;28;20196;-66
2023/06/18 04:10:27;;;;;;;3.77;1.00;;;20.40;32.60;;;;;;5032420;28;20185;-67
2023/06/18 04:12:54;;;;;;;0.80;0.80;;;20.70;32.20;;;;;;5032597;28;20208;-69
2023/06/18 04:15:22;;;;;;;5.60;0.80;;;20.80;31.60;;;;;;5033772;28;20188;-69
2023/06/18 04:17:49;;;;;;;1.97;0.80;;;20.90;31.60;;;;;;5030548;28;20207;-67
2023/06/18 04:20:16;;;;;;;0.83;0.73;;;21.20;31.40;;;;;;5036388;28;20653;-66
2023/06/18 04:22:44;;;;;;;3.43;1.43;;;21.10;31.00;;;;;;5033174;28;20182;-68
2023/06/18 04:25:11;;;;;;;1.90;1.07;;;20.50;31.40;;;;;;5029864;28;20185;-67
2023/06/18 04:27:39;;;;;;;1.30;0.80;;;20.10;32.20;;;;;;5032040;28;20191;-70
2023/06/18 04:30:08;;;;;;;2.67;1.03;;;20.60;31.60;;;;;;5033990;28;20180;-69
2023/06/18 04:32:35;;;;;;;1.83;0.90;;;20.70;31.60;;;;;;5031669;28;20215;-67
2023/06/18 04:35:02;;;;;;;2.03;0.80;;;20.90;31.50;;;;;;5033431;28;20250;-70
2023/06/18 04:37:31;;;;;;;1.63;0.80;;;21.30;31.60;;;;;;5032662;28;20180;-70
2023/06/18 04:39:58;;;;;;;1.70;0.93;;;21.40;30.90;;;;;;5034195;28;20582;-67
2023/06/18 04:42:25;;;;;;;2.57;0.90;;;21.20;31.30;;;;;;5035901;28;20302;-67
2023/06/18 04:44:53;;;;;;;1.73;1.10;;;21.20;31.00;;;;;;5036634;28;20647;-68
2023/06/18 04:47:20;;;;;;;2.10;1.10;;;21.50;31.30;;;;;;5037002;28;20185;-66
2023/06/18 04:49:48;;;;;;;1.87;0.90;;;21.70;31.10;;;;;;5035682;28;20300;-65
2023/06/18 04:52:15;;;;;;;3.50;0.90;;;21.30;30.90;;;;;;5032705;28;20706;-71
2023/06/18 04:54:43;;;;;;;1.93;0.90;;;21.30;31.20;;;;;;5034020;28;20213;-69
2023/06/18 04:57:10;;;;;;;3.27;1.03;;;20.30;32.90;;;;;;5037194;28;20677;-71
2023/06/18 04:59:41;;;;;;;0.83;0.77;;;19.50;34.30;;;;;;5036428;28;20175;-69
2023/06/18 05:02:08;;;;;;;1.30;0.90;;;18.90;35.40;;;;;;5034779;28;20181;-67
2023/06/18 05:04:35;;;;;;;1.53;0.83;;;18.80;36.40;;;;;;5038353;28;20187;-70
2023/06/18 05:07:03;;;;;;;4.93;0.80;;;18.70;36.50;;;;;;5038380;28;20206;-71
2023/06/18 05:09:31;;;;;;;1.13;0.90;;;18.70;37.10;;;;;;5038706;28;20583;-71
2023/06/18 05:11:58;;;;;;;2.13;1.10;;;18.50;36.80;;;;;;5036326;28;20223;-71
2023/06/18 05:14:27;;;;;;;3.63;1.20;;;18.40;37.10;;;;;;5024266;28;20208;-69
2023/06/18 05:16:55;;;;;;;5.53;1.20;;;18.30;37.10;;;;;;5032694;28;20183;-73
2023/06/18 05:19:22;;;;;;;2.90;0.90;;;18.30;37.30;;;;;;5035069;28;20227;-71
2023/06/18 05:21:50;;;;;;;4.10;1.20;;;18.30;37.50;;;;;;5034524;28;20226;-70
2023/06/18 05:24:17;;;;;;;2.40;1.00;;;18.30;37.50;;;;;;5034692;28;20658;-70
2023/06/18 05:26:44;;;;;;;2.37;1.30;;;18.30;37.50;;;;;;5028477;28;20192;-71
2023/06/18 05:29:13;;;;;;;1.87;1.20;;;18.20;37.60;;;;;;5034917;28;20208;-69
2023/06/18 05:31:40;;;;;;;1.30;1.07;;;18.20;37.80;;;;;;5036167;28;20260;-71
2023/06/18 05:34:08;;;;;;;4.20;1.20;;;18.20;37.90;;;;;;5034238;28;20271;-71
2023/06/18 05:36:35;;;;;;;1.20;1.00;;;18.20;37.90;;;;;;5034479;28;20678;-71
2023/06/18 05:39:02;;;;;;;1.93;0.90;;;18.10;37.90;;;;;;5036569;28;20184;-69
2023/06/18 05:41:30;;;;;;;2.37;0.93;;;18.10;38.00;;;;;;5032164;28;20708;-69
2023/06/18 05:43:58;;;;;;;3.60;1.40;;;18.10;38.20;;;;;;5033350;28;20219;-71
2023/06/18 05:46:25;;;;;;;3.07;0.90;;;18.50;36.80;;;;;;5031079;28;20172;-70
2023/06/18 05:48:53;;;;;;;2.00;1.03;;;18.60;36.70;;;;;;5033280;28;20187;-67
2023/06/18 05:51:20;;;;;;;2.27;1.13;;;18.30;37.30;;;;;;5033340;28;21329;-68
2023/06/18 05:53:48;;;;;;;2.00;1.00;;;18.10;37.70;;;;;;5029939;28;20188;-68
2023/06/18 05:56:15;;;;;;;1.60;1.17;;;18.00;38.10;;;;;;5030990;28;20211;-67
2023/06/18 05:58:42;;;;;;;11.40;7.50;;;17.80;38.20;;;;;;5033591;28;20180;-67
2023/06/18 06:01:10;;;;;;;5.53;2.37;;;17.80;38.50;;;;;;5030871;28;20192;-67
2023/06/18 06:03:37;;;;;;;1.57;1.00;;;17.70;38.80;;;;;;5033216;28;20523;-68
2023/06/18 06:06:05;;;;;;;1.83;1.20;;;17.60;38.60;;;;;;5033254;28;20220;-67
2023/06/18 06:08:32;;;;;;;1.93;1.20;;;17.60;39.10;;;;;;5035484;28;20183;-67
2023/06/18 06:11:01;;;;;;;1.83;1.00;;;17.60;38.90;;;;;;5039163;28;20250;-67
2023/06/18 06:13:28;;;;;;;1.23;1.00;;;17.50;39.30;;;;;;5037002;28;20192;-67
2023/06/18 06:15:55;;;;;;;2.90;1.23;;;17.40;40.10;;;;;;5039832;28;20605;-66
2023/06/18 06:18:23;;;;;;;2.67;0.87;;;17.20;41.40;;;;;;5432910;22;20264;-74
2023/06/18 06:20:50;;;;;;;2.47;1.03;;;17.00;42.30;;;;;;4984412;28;20196;-72
2023/06/18 06:23:18;;;;;;;1.90;0.90;;;16.70;42.80;;;;;;4985042;28;20219;-72
2023/06/18 06:25:45;;;;;;;1.00;0.90;;;16.70;43.10;;;;;;4986799;28;20209;-74
2023/06/18 06:28:12;;;;;;;1.07;0.97;;;16.70;43.20;;;;;;4989548;28;20234;-72
2023/06/18 06:30:40;;;;;;;1.00;0.90;;;16.30;43.50;;;;;;4990042;28;20179;-74
2023/06/18 06:33:08;;;;;;;1.27;1.00;;;16.20;44.00;;;;;;4989244;28;20268;-72
2023/06/18 06:35:36;;;;;;;2.67;1.00;;;16.10;44.00;;;;;;4990799;28;20186;-72
2023/06/18 06:38:03;;;;;;;2.03;1.00;;;16.00;44.10;;;;;;4989014;28;20201;-72
2023/06/18 06:40:31;;;;;;;1.13;1.00;;;16.00;43.80;;;;;;4985713;28;20184;-72
2023/06/18 06:42:58;;;;;;;1.70;0.93;;;15.90;44.20;;;;;;4986871;28;20193;-74
2023/06/18 06:45:29;;;;;;;1.93;1.20;;;15.80;44.30;;;;;;4990271;28;20203;-73
2023/06/18 06:47:56;;;;;;;3.10;1.10;;;15.70;44.60;;;;;;4989481;28;20193;-71
2023/06/18 06:50:24;;;;;;;1.30;0.80;;;15.60;44.90;;;;;;4993070;28;20186;-71
2023/06/18 06:52:52;;;;;;;1.17;0.87;;;15.60;45.00;;;;;;4989108;28;20317;-72
2023/06/18 06:55:19;;;;;;;0.70;0.70;;;15.50;45.20;;;;;;4987167;28;20201;-71
2023/06/18 06:57:47;;;;;;;0.80;0.80;;;15.40;45.40;;;;;;4988132;28;20198;-69
2023/06/18 07:00:14;;;;;;;2.63;0.90;;;15.30;45.80;;;;;;4991516;28;20189;-70
2023/06/18 07:02:41;;;;;;;1.53;0.90;;;15.30;46.20;;;;;;4988379;28;20200;-72
2023/06/18 07:05:09;;;;;;;0.90;0.90;;;15.20;46.20;;;;;;4995114;28;20189;-71
2023/06/18 07:07:36;;;;;;;1.17;1.00;;;15.20;46.50;;;;;;4992607;28;20190;-74
2023/06/18 07:10:04;;;;;;;1.10;1.00;;;15.10;46.80;;;;;;4986747;28;20234;-73
2023/06/18 07:12:32;;;;;;;1.57;1.10;;;15.00;47.20;;;;;;4989153;28;20209;-70
2023/06/18 07:14:59;;;;;;;1.53;0.90;;;14.90;47.30;;;;;;4987982;28;20648;-73
2023/06/18 07:17:26;;;;;;;1.40;1.10;;;14.90;47.00;;;;;;4990168;28;20320;-72
2023/06/18 07:19:55;;;;;;;1.30;1.10;;;14.80;47.20;;;;;;4990555;28;20244;-72
2023/06/18 07:22:22;;;;;;;1.70;1.30;;;14.80;47.10;;;;;;4989618;28;20186;-72
2023/06/18 07:24:50;;;;;;;1.53;1.10;;;14.80;47.10;;;;;;4992394;28;20190;-70
2023/06/18 07:27:17;;;;;;;2.57;1.10;;;14.70;47.50;;;;;;4991996;28;20584;-70
2023/06/18 07:29:45;;;;;;;1.43;1.20;;;14.70;47.50;;;;;;4988345;28;20208;-71
2023/06/18 07:32:12;;;;;;;1.47;1.30;;;14.60;47.60;;;;;;4989412;28;20218;-71
2023/06/18 07:34:39;;;;;;;1.53;1.40;;;14.50;47.80;;;;;;4977129;28;20548;-72
2023/06/18 07:37:07;;;;;;;1.87;1.43;;;14.40;48.00;;;;;;4983795;28;20186;-71
2023/06/18 07:39:34;;;;;;;2.90;1.70;;;14.40;48.20;;;;;;4992555;28;20185;-72
2023/06/18 07:42:01;;;;;;;4.33;1.80;;;14.30;48.60;;;;;;4984620;28;20664;-72
2023/06/18 07:44:29;;;;;;;2.13;1.40;;;14.30;48.80;;;;;;4983088;28;20190;-71
2023/06/18 07:46:56;;;;;;;1.50;1.40;;;14.30;48.70;;;;;;4981932;28;20186;-72
2023/06/18 07:49:24;;;;;;;2.67;1.83;;;14.30;48.80;;;;;;4990535;28;20228;-73
2023/06/18 07:51:51;;;;;;;1.70;1.53;;;14.20;49.10;;;;;;4982257;28;20213;-75
2023/06/18 07:54:19;;;;;;;2.23;1.60;;;14.20;49.20;;;;;;4982196;28;20190;-71
2023/06/18 07:56:46;;;;;;;2.50;1.67;;;14.10;49.30;;;;;;4985767;28;20607;-71
2023/06/18 07:59:14;;;;;;;1.70;1.40;;;14.00;49.30;;;;;;4985108;28;20233;-73
2023/06/18 08:01:41;;;;;;;3.07;1.60;;;14.00;49.60;;;;;;4983380;28;20186;-72
2023/06/18 08:04:08;;;;;;;2.17;1.53;;;14.00;49.30;;;;;;4985902;28;20189;-70
2023/06/18 08:06:36;;;;;;;2.37;1.50;;;14.00;49.30;;;;;;4985232;28;20210;-73
2023/06/18 08:09:03;;;;;;;3.83;1.80;;;13.90;49.70;;;;;;4985791;28;20232;-71
2023/06/18 08:11:30;;;;;;;1.60;1.50;;;13.90;49.80;;;;;;4980449;28;20296;-70
2023/06/18 08:13:57;;;;;;;1.57;1.40;;;13.80;50.00;;;;;;4983501;28;20187;-71
2023/06/18 08:16:25;;;;;;;2.07;1.60;;;13.80;49.90;;;;;;4987258;28;20185;-71
2023/06/18 08:18:53;;;;;;;2.30;1.43;;;13.80;50.10;;;;;;4989200;28;20223;-73
2023/06/18 08:21:21;;;;;;;1.77;1.40;;;13.80;49.80;;;;;;4982761;28;20257;-70
2023/06/18 08:23:49;;;;;;;1.83;1.60;;;13.70;49.70;;;;;;4986105;28;20555;-71
2023/06/18 08:26:16;;;;;;;1.60;1.40;;;13.70;49.70;;;;;;4984185;28;20182;-74
2023/06/18 08:28:43;;;;;;;2.60;1.57;;;13.60;50.20;;;;;;4985880;28;20682;-71
2023/06/18 08:31:11;;;;;;;2.40;1.60;;;13.60;50.10;;;;;;4983999;28;20209;-74
2023/06/18 08:33:38;;;;;;;2.53;1.67;;;13.50;50.40;;;;;;4988748;28;20197;-72
2023/06/18 08:36:06;;;;;;;3.03;1.53;;;13.50;50.50;;;;;;4977666;28;20187;-71
2023/06/18 08:38:33;;;;;;;3.63;1.50;;;13.40;50.70;;;;;;4990033;28;20229;-71
2023/06/18 08:41:02;;;;;;;2.33;1.60;;;13.30;51.00;;;;;;4986642;28;20196;-71
2023/06/18 08:43:35;;;;;;;2.40;1.70;;;13.30;51.40;;;;;;4988314;28;20292;-72
2023/06/18 08:46:16;;;;;;;1.60;1.50;;;13.20;51.60;;;;;;4984653;28;20241;-72
2023/06/18 08:48:58;;;;;;;2.20;1.70;;;13.20;51.90;;;;;;4985160;28;20190;-71
2023/06/18 08:51:26;;;;;;;1.47;1.37;;;13.10;52.10;;;;;;4984555;28;20213;-71
2023/06/18 08:54:03;;;;;;;1.70;1.53;;;13.10;52.10;;;;;;4981786;28;20198;-72
2023/06/18 08:56:31;;;;;;;2.20;2.00;;;13.10;52.20;;;;;;4982390;28;20244;-72
2023/06/18 08:58:59;;;;;;;2.43;2.00;;;13.00;52.50;;;;;;4987633;28;20190;-72
2023/06/18 09:01:27;;;;;;;1.70;1.60;;;12.90;52.60;;;;;;4985069;28;20535;-72
2023/06/18 09:03:55;;;;;;;3.03;1.90;;;12.90;52.90;;;;;;4982743;28;20198;-71
2023/06/18 09:06:23;;;;;;;1.60;1.50;;;12.80;53.50;;;;;;4992006;28;20609;-72
2023/06/18 09:08:51;;;;;;;2.10;1.50;;;12.80;53.40;;;;;;4973041;28;20225;-73
2023/06/18 09:11:19;;;;;;;2.07;1.57;;;12.70;53.70;;;;;;4985376;28;20268;-72
2023/06/18 09:13:46;;;;;;;2.77;1.70;;;12.70;54.00;;;;;;4986958;28;20259;-74
2023/06/18 09:16:14;;;;;;;2.23;1.70;;;12.50;54.20;;;;;;4996732;28;20193;-73
2023/06/18 09:18:42;;;;;;;2.23;1.60;;;12.50;54.40;;;;;;4983084;28;20234;-72
2023/06/18 09:21:10;;;;;;;1.97;1.70;;;12.50;54.70;;;;;;4986869;28;20189;-72
2023/06/18 09:23:38;;;;;;;1.77;1.67;;;12.40;54.20;;;;;;4988359;28;20409;-72
2023/06/18 09:26:05;;;;;;;3.47;2.33;;;12.40;54.30;;;;;;4981017;28;20186;-71
2023/06/18 09:28:33;;;;;;;1.50;1.40;;;12.30;54.30;;;;;;4988721;28;20180;-75
2023/06/18 09:31:02;;;;;;;1.90;1.50;;;12.30;54.30;;;;;;4986408;28;20193;-72
2023/06/18 09:33:33;;;;;;;3.20;1.60;;;12.30;54.20;;;;;;4988557;28;20531;-75
2023/06/18 09:36:08;;;;;;;1.43;1.27;;;12.30;54.30;;;;;;4995760;28;21901;-72
2023/06/18 09:38:38;;;;;;;1.67;1.50;;;12.30;53.90;;;;;;4993017;28;20221;-70
2023/06/18 09:41:14;;;;;;;1.53;1.43;;;12.30;53.90;;;;;;4982657;28;20182;-72
2023/06/18 09:43:45;;;;;;;2.33;1.50;;;12.30;54.00;;;;;;4990372;28;20250;-72
2023/06/18 09:46:12;;;;;;;1.60;1.50;;;12.20;54.00;;;;;;4980644;28;20177;-72
2023/06/18 09:48:46;;;;;;;1.50;1.40;;;12.20;54.00;;;;;;4990351;28;20185;-72
2023/06/18 09:51:17;;;;;;;1.70;1.50;;;12.10;54.30;;;;;;4983458;28;20259;-72
2023/06/18 09:53:45;;;;;;;1.50;1.40;;;12.10;54.00;;;;;;4990892;28;21702;-71
2023/06/18 09:56:14;;;;;;;2.23;1.40;;;12.10;54.00;;;;;;4981081;28;20193;-73
2023/06/18 09:58:48;;;;;;;1.37;1.27;;;12.00;54.20;;;;;;4979009;28;20192;-73
2023/06/18 10:01:17;;;;;;;2.00;1.27;;;12.00;54.20;;;;;;4987804;28;20245;-70
2023/06/18 10:03:45;;;;;;;1.40;1.30;;;12.00;54.30;;;;;;4990775;28;20221;-74
2023/06/18 10:06:22;;;;;;;1.33;1.23;;;12.00;54.40;;;;;;4992692;28;20794;-73
2023/06/18 10:08:57;;;;;;;1.50;1.40;;;11.80;54.70;;;;;;4994470;28;20197;-73
2023/06/18 10:11:25;;;;;;;2.43;1.50;;;11.80;54.90;;;;;;4990671;28;20216;-75
2023/06/18 10:13:59;;;;;;;1.30;1.20;;;11.80;55.00;;;;;;4986089;28;20186;-73
2023/06/18 10:16:29;;;;;;;1.90;1.50;;;11.70;54.80;;;;;;4985710;28;20235;-71
2023/06/18 10:19:19;;;;;;;1.30;1.20;;;11.70;54.80;;;;;;4991752;28;20606;-72
2023/06/18 10:21:57;;;;;;;1.70;1.30;;;11.70;54.90;;;;;;4971987;28;20193;-68
2023/06/18 10:24:46;;;;;;;1.50;1.40;;;11.70;55.00;;;;;;4989549;28;20189;-74
2023/06/18 10:27:15;;;;;;;1.80;1.30;;;11.70;54.50;;;;;;4994914;28;20185;-72
2023/06/18 10:29:43;;;;;;;1.57;1.47;;;11.70;54.50;;;;;;4990542;28;20196;-72
2023/06/18 10:32:11;;;;;;;1.63;1.33;;;11.70;54.60;;;;;;4994339;28;20206;-72
2023/06/18 10:34:39;;;;;;;1.73;1.50;;;11.70;54.60;;;;;;4986295;28;20194;-72
2023/06/18 10:37:08;;;;;;;2.63;1.30;;;11.60;54.70;;;;;;4987405;28;20194;-72
2023/06/18 10:39:36;;;;;;;2.73;1.40;;;11.70;54.40;;;;;;4987689;28;20634;-75
2023/06/18 10:42:16;;;;;;;1.47;1.30;;;11.70;54.50;;;;;;4989232;28;20275;-72
2023/06/18 10:44:52;;;;;;;1.70;1.60;;;11.60;54.50;;;;;;4986330;28;20246;-74
2023/06/18 10:47:27;;;;;;;1.40;1.30;;;11.60;54.70;;;;;;4988253;28;20220;-72
2023/06/18 10:50:12;;;;;;;1.40;1.30;;;11.50;54.60;;;;;;4989931;28;20284;-76
2023/06/18 10:52:44;;;;;;;2.93;1.20;;;11.50;54.80;;;;;;4995037;28;20307;-73
2023/06/18 10:55:26;;;;;;;1.60;1.13;;;11.50;54.70;;;;;;4984699;28;20705;-74
2023/06/18 10:58:05;;;;;;;1.47;1.20;;;11.40;55.00;;;;;;4987759;28;20177;-71
2023/06/18 11:00:34;;;;;;;1.40;1.30;;;11.40;55.00;;;;;;4990842;28;20184;-73
2023/06/18 11:03:11;;;;;;;1.27;1.17;;;11.40;55.00;;;;;;4993626;28;20711;-72
2023/06/18 11:05:46;;;;;;;1.40;1.30;;;11.30;55.00;;;;;;4986164;28;20211;-74
2023/06/18 11:08:16;;;;;;;1.50;1.40;;;11.30;55.20;;;;;;4994980;28;20191;-73
2023/06/18 11:10:48;;;;;;;1.30;1.20;;;11.30;55.20;;;;;;4987278;28;20223;-74
2023/06/18 11:13:17;;;;;;;1.50;1.40;;;11.20;55.60;;;;;;4990048;28;20223;-73
2023/06/18 11:16:02;;;;;;;1.37;1.20;;;11.20;55.80;;;;;;4991454;28;20239;-72
2023/06/18 11:18:31;;;;;;;1.30;1.17;;;11.20;55.40;;;;;;4996464;28;20326;-74
2023/06/18 11:20:59;;;;;;;1.40;1.23;;;11.10;55.70;;;;;;4987880;28;20195;-74
2023/06/18 11:23:28;;;;;;;1.40;1.30;;;11.10;55.80;;;;;;4991005;28;20181;-74
2023/06/18 11:25:56;;;;;;;2.83;1.20;;;11.10;56.40;;;;;;4989688;28;20191;-76
2023/06/18 11:28:27;;;;;;;1.40;1.30;;;11.00;55.90;;;;;;4986041;28;20210;-74
2023/06/18 11:31:03;;;;;;;1.40;1.30;;;11.00;56.00;;;;;;4985192;28;20197;-73
2023/06/18 11:33:31;;;;;;;2.03;1.37;;;11.00;55.90;;;;;;4984552;28;20239;-73
2023/06/18 11:36:13;;;;;;;1.30;1.20;;;11.00;56.10;;;;;;4990515;28;20667;-71
2023/06/18 11:38:41;;;;;;;1.60;1.50;;;10.90;55.90;;;;;;4989431;28;20177;-74
2023/06/18 11:41:09;;;;;;;1.50;1.40;;;10.90;57.10;;;;;;4988507;28;20188;-74
2023/06/18 11:43:53;;;;;;;1.70;1.40;;;10.80;56.70;;;;;;4986227;28;20193;-73
2023/06/18 11:46:29;;;;;;;1.37;1.27;;;10.80;56.80;;;;;;4984827;28;20185;-73
2023/06/18 11:48:58;;;;;;;1.73;1.50;;;10.70;57.10;;;;;;4989024;28;20246;-71
2023/06/18 11:51:27;;;;;;;1.90;1.60;;;10.60;57.70;;;;;;4983608;28;20287;-73
2023/06/18 11:53:56;;;;;;;1.60;1.50;;;10.50;57.80;;;;;;4981690;28;20181;-72
2023/06/18 11:56:28;;;;;;;1.60;1.50;;;10.40;58.40;;;;;;4982787;28;20658;-71
2023/06/18 11:58:59;;;;;;;1.70;1.60;;;10.30;58.60;;;;;;4989422;28;20210;-73
2023/06/18 12:01:31;;;;;;;1.93;1.70;;;10.30;59.10;;;;;;4981349;28;20673;-73
2023/06/18 12:04:06;;;;;;;1.87;1.70;;;10.30;59.90;;;;;;4984099;28;20666;-74
2023/06/18 12:06:34;;;;;;;3.53;2.10;;;10.20;59.60;;;;;;4984495;28;20184;-74
2023/06/18 12:09:11;;;;;;;2.63;2.23;;;10.20;60.00;;;;;;4987465;28;20199;-75
2023/06/18 12:12:11;;;;;;;6.27;2.37;;;10.20;60.40;;;;;;4983458;28;20209;-73
2023/06/18 12:14:46;;;;;;;3.07;2.20;;;10.20;61.40;;;;;;4986540;28;20196;-72
2023/06/18 12:17:32;;;;;;;4.20;2.03;;;10.10;60.60;;;;;;4986653;28;20188;-72
2023/06/18 12:20:13;;;;;;;2.50;1.93;;;10.00;61.40;;;;;;4981509;28;20282;-72
2023/06/18 12:22:42;;;;;;;2.20;1.67;;;10.00;61.80;;;;;;4987877;28;20224;-72
2023/06/18 12:25:14;;;;;;;1.87;1.63;;;9.90;62.10;;;;;;4988454;28;20592;-73
2023/06/18 12:27:42;;;;;;;2.43;2.23;;;9.90;62.20;;;;;;4986030;28;20192;-74
2023/06/18 12:30:14;;;;;;;1.70;1.60;;;9.90;63.40;;;;;;4988972;28;20207;-73
2023/06/18 12:32:41;;;;;;;2.80;1.73;;;9.80;63.30;;;;;;4984945;28;20223;-73
2023/06/18 12:35:17;;;;;;;5.17;1.97;;;9.90;64.60;;;;;;4987420;28;20233;-73
2023/06/18 12:37:47;;;;;;;2.80;2.00;;;9.90;64.80;;;;;;4984547;28;20201;-74
2023/06/18 12:40:25;;;;;;;1.70;1.60;;;9.90;64.50;;;;;;4983854;28;20200;-74
2023/06/18 12:42:53;;;;;;;2.53;2.03;;;9.90;65.30;;;;;;4981466;28;20219;-74
2023/06/18 12:45:28;;;;;;;3.97;2.00;;;9.80;65.00;;;;;;4984973;28;20217;-75
2023/06/18 12:47:55;;;;;;;2.47;1.50;;;9.70;65.60;;;;;;4984717;28;20180;-72
2023/06/18 12:50:26;;;;;;;2.60;1.83;;;9.70;65.90;;;;;;4983999;28;20197;-73
2023/06/18 12:52:53;;;;;;;10.93;2.70;;;9.80;66.40;;;;;;4986497;28;20217;-73
2023/06/18 12:55:22;;;;;;;8.53;2.53;;;9.70;66.80;;;;;;4986695;28;20181;-74
2023/06/18 12:57:50;;;;;;;8.17;2.77;;;9.70;66.80;;;;;;4988264;28;20274;-74
2023/06/18 13:00:22;;;;;;;4.53;2.47;;;9.70;66.70;;;;;;4995251;28;20185;-72